Time;durP1;ratioP1;P1;durP2;ratioP2;P2;SDS_P1;SDS_P2;PMS_P1;PMS_P2;Temp;Humidity;BMP_temperature;BMP_pressure;BME280_temperature;BME280_humidity;BME280_pressure;Samples;Min_cycle;Max_cycle;Signal;HPM_P1;HPM_P2
2021/05/17 13:33:37;;;;;;;;;0.00;0.00;;;;;20.14;47.25;100818.22;5117201;27;838280;-54
2021/05/17 13:36:10;;;;;;;;;0.00;0.00;;;;;20.30;46.75;100823.25;5125839;27;45841;-54
2021/05/17 13:38:38;;;;;;;;;0.00;0.00;;;;;20.47;46.34;100820.34;5128508;27;45662;-57
2021/05/17 13:41:09;;;;;;;;;0.00;0.00;;;;;20.62;46.20;100829.78;5099282;27;45794;-56
2021/05/17 13:43:41;;;;;;;;;0.00;0.00;;;;;20.79;45.85;100825.91;5108318;27;46423;-57
2021/05/17 13:46:09;;;;;;;;;0.00;0.00;;;;;20.93;45.75;100822.22;5112698;27;45895;-55
2021/05/17 13:48:48;;;;;;;;;0.25;0.00;;;;;21.10;45.35;100825.44;5108835;27;45623;-56
2021/05/17 13:51:14;;;;;;;;;0.00;0.00;;;;;21.27;45.38;100821.47;5102304;27;45726;-57
2021/05/17 13:53:41;;;;;;;;;0.00;0.00;;;;;21.40;44.83;100813.38;5102404;27;46177;-56
2021/05/17 13:56:07;;;;;;;;;0.00;0.00;;;;;21.54;45.04;100811.47;5117841;27;45860;-56
2021/05/17 13:58:32;;;;;;;;;0.00;0.00;;;;;21.59;44.40;100804.81;5105568;27;45893;-57
2021/05/17 14:00:58;;;;;;;;;0.00;0.00;;;;;21.74;44.56;100810.78;5120310;27;45519;-56
2021/05/17 14:03:26;;;;;;;;;0.00;0.00;;;;;21.84;44.57;100824.19;5104294;27;46074;-58
2021/05/17 14:05:52;;;;;;;;;0.00;0.00;;;;;21.92;43.92;100825.41;5100055;27;45563;-61
2021/05/17 14:08:17;;;;;;;;;0.00;0.00;;;;;21.99;44.10;100829.25;5103432;27;45580;-56
2021/05/17 14:10:45;;;;;;;;;0.00;0.00;;;;;22.06;44.22;100806.50;5108853;27;45680;-56
2021/05/17 14:13:10;;;;;;;;;0.00;0.00;;;;;22.19;44.20;100814.34;5109529;27;54083;-56
2021/05/17 14:15:37;;;;;;;;;0.00;0.00;;;;;22.26;43.86;100814.69;5107999;27;45776;-58
2021/05/17 14:18:03;;;;;;;;;0.00;0.00;;;;;22.36;43.42;100822.75;5108468;27;45981;-57
2021/05/17 14:20:28;;;;;;;;;0.00;0.00;;;;;22.43;43.79;100823.94;5118285;27;45492;-55
2021/05/17 14:22:54;;;;;;;;;0.00;0.00;;;;;22.50;43.23;100829.63;5099777;27;47233;-56
2021/05/17 14:25:19;;;;;;;;;0.00;0.00;;;;;22.51;43.31;100821.50;5105312;27;51141;-57
2021/05/17 14:27:45;;;;;;;;;0.00;0.00;;;;;22.61;43.24;100832.28;5103185;27;45449;-58
2021/05/17 14:30:14;;;;;;;;;0.00;0.00;;;;;22.67;42.70;100834.41;5097858;27;45496;-60
2021/05/17 14:32:40;;;;;;;;;0.00;0.00;;;;;22.74;42.59;100833.91;5092377;27;47703;-58
2021/05/17 14:35:07;;;;;;;;;0.00;0.00;;;;;22.80;42.78;100833.38;5108162;27;45909;-57
2021/05/17 14:37:32;;;;;;;;;0.00;0.00;;;;;22.89;42.72;100829.09;5121413;27;45949;-56
2021/05/17 14:39:58;;;;;;;;;0.00;0.00;;;;;22.95;42.79;100840.09;5114047;27;45735;-55
2021/05/17 14:42:25;;;;;;;;;0.00;0.00;;;;;23.03;42.28;100830.63;5118246;27;48315;-56
2021/05/17 14:44:51;;;;;;;;;0.00;0.00;;;;;23.08;42.23;100836.41;5098380;27;45484;-56
2021/05/17 14:47:18;;;;;;;;;0.00;0.00;;;;;23.21;42.52;100841.53;5101134;27;45528;-56
2021/05/17 14:49:46;;;;;;;;;0.00;0.00;;;;;23.28;42.02;100845.34;5107307;27;45535;-58
2021/05/17 14:52:12;;;;;;;;;0.00;0.00;;;;;23.38;42.11;100860.59;5099938;27;46792;-56
2021/05/17 14:54:37;;;;;;;;;0.00;0.00;;;;;23.42;42.30;100849.53;5098898;27;46175;-56
2021/05/17 14:57:03;;;;;;;;;0.25;0.00;;;;;23.54;42.26;100862.78;5098940;27;45474;-57
2021/05/17 14:59:29;;;;;;;;;0.00;0.00;;;;;23.61;42.09;100863.94;5089342;27;45799;-56
2021/05/17 15:01:55;;;;;;;;;0.00;0.00;;;;;23.67;41.76;100860.75;5103056;27;46177;-56
2021/05/17 15:04:20;;;;;;;;;0.00;0.00;;;;;23.72;41.48;100885.19;5094893;27;45789;-54
2021/05/17 15:06:49;;;;;;;;;0.00;0.00;;;;;23.76;41.47;100880.44;5096701;27;45811;-58
2021/05/17 15:09:17;;;;;;;;;0.00;0.00;;;;;23.77;41.89;100868.78;5089818;27;45626;-56
2021/05/17 15:11:43;;;;;;;;;0.00;0.00;;;;;23.70;41.11;100868.47;5093257;27;46438;-58
2021/05/17 15:14:10;;;;;;;;;0.00;0.00;;;;;23.87;40.97;100887.50;5082101;27;45746;-57
2021/05/17 15:16:35;;;;;;;;;0.00;0.00;;;;;23.89;40.89;100874.88;5095000;27;45713;-58
2021/05/17 15:19:01;;;;;;;;;0.00;0.00;;;;;23.91;41.39;100874.75;5086553;27;45564;-57
2021/05/17 15:21:27;;;;;;;;;0.00;0.00;;;;;23.94;40.92;100872.63;5085746;27;46298;-57
2021/05/17 15:23:53;;;;;;;;;0.00;0.00;;;;;23.97;40.84;100879.53;5091845;27;45896;-57
2021/05/17 15:26:18;;;;;;;;;0.00;0.00;;;;;23.97;41.24;100880.38;5088050;27;45885;-57
2021/05/17 15:28:48;;;;;;;;;0.00;0.00;;;;;23.99;40.87;100881.09;5091526;27;45570;-59
2021/05/17 15:31:15;;;;;;;;;0.00;0.00;;;;;23.98;40.75;100876.72;5085167;27;46960;-57
2021/05/17 15:33:42;;;;;;;;;0.00;0.00;;;;;23.98;41.31;100868.72;5092303;27;45546;-56
2021/05/17 15:36:07;;;;;;;;;0.00;0.00;;;;;23.94;41.16;100867.31;5086220;27;45780;-54
2021/05/17 15:38:33;;;;;;;;;0.00;0.00;;;;;23.99;41.24;100880.22;5087196;27;45766;-57
2021/05/17 15:41:00;;;;;;;;;0.25;0.00;;;;;24.05;40.84;100894.88;5092780;27;46150;-54
2021/05/17 15:43:30;;;;;;;;;0.00;0.00;;;;;24.09;40.54;100881.13;5096497;27;45544;-54
2021/05/17 15:45:56;;;;;;;;;0.00;0.00;;;;;24.15;40.90;100879.75;5095060;27;45813;-54
2021/05/17 15:48:27;;;;;;;;;0.00;0.00;;;;;24.18;40.65;100890.19;5092036;27;45475;-53
2021/05/17 15:50:53;;;;;;;;;0.00;0.00;;;;;24.25;40.13;100906.47;5088468;27;46242;-52
2021/05/17 15:53:18;;;;;;;;;0.00;0.00;;;;;24.30;40.71;100901.56;5086320;27;45845;-53
2021/05/17 15:55:44;;;;;;;;;0.00;0.00;;;;;24.34;39.99;100899.47;5081980;27;45641;-55
2021/05/17 15:58:09;;;;;;;;;0.00;0.00;;;;;24.38;39.94;100912.41;5075015;27;47539;-56
2021/05/17 16:00:35;;;;;;;;;0.00;0.00;;;;;24.43;40.29;100906.66;5088544;27;55790;-54
2021/05/17 16:03:01;;;;;;;;;0.00;0.00;;;;;24.49;39.71;100916.78;5076111;27;54086;-52
2021/05/17 16:05:27;;;;;;;;;0.00;0.00;;;;;24.56;39.74;100911.72;5084186;27;45580;-54
2021/05/17 16:07:53;;;;;;;;;0.00;0.00;;;;;24.60;40.12;100913.16;5080016;27;45556;-54
2021/05/17 16:10:20;;;;;;;;;0.00;0.00;;;;;24.61;40.00;100925.50;5075071;27;47032;-53
2021/05/17 16:13:01;;;;;;;;;0.00;0.00;;;;;24.65;39.97;100937.59;5077325;27;45417;-53
2021/05/17 16:15:55;;;;;;;;;0.00;0.00;;;;;24.69;39.64;100924.81;5078408;27;45429;-52
2021/05/17 16:23:42;;;;;;;;;0.00;0.00;;;;;24.88;39.60;100945.38;5080121;27;45617;-55
2021/05/17 16:26:08;;;;;;;;;0.00;0.00;;;;;24.92;39.28;100922.75;5077814;27;45533;-58
2021/05/17 16:28:34;;;;;;;;;0.00;0.00;;;;;24.97;39.47;100926.84;5083959;27;46634;-58
2021/05/17 16:31:00;;;;;;;;;0.00;0.00;;;;;25.03;39.52;100931.63;5080170;27;46171;-56
2021/05/17 16:33:25;;;;;;;;;0.00;0.00;;;;;25.07;38.96;100927.69;5078792;27;45569;-56
2021/05/17 16:35:51;;;;;;;;;0.00;0.00;;;;;25.11;38.91;100934.44;5078593;27;45427;-58
2021/05/17 16:38:17;;;;;;;;;0.00;0.00;;;;;25.16;39.40;100932.19;5084862;27;45540;-55
2021/05/17 16:40:42;;;;;;;;;0.00;0.00;;;;;25.24;39.52;100938.66;5091913;27;46861;-55
2021/05/17 16:43:08;;;;;;;;;0.00;0.00;;;;;25.29;39.05;100939.06;5091547;27;46197;-55
2021/05/17 16:45:33;;;;;;;;;0.00;0.00;;;;;25.27;39.33;100925.84;5081606;27;45548;-55
2021/05/17 16:47:59;;;;;;;;;1.00;0.00;;;;;25.33;39.03;100932.44;5091584;27;45479;-55
2021/05/17 16:50:25;;;;;;;;;0.00;0.00;;;;;25.33;38.79;100938.63;5097929;27;46382;-54
2021/05/17 16:52:50;;;;;;;;;2.00;0.00;;;;;25.33;38.83;100943.16;5095686;27;45552;-55
2021/05/17 16:55:20;;;;;;;;;0.00;0.00;;;;;25.32;39.14;100938.78;5080761;27;45682;-55
2021/05/17 16:57:47;;;;;;;;;0.00;0.00;;;;;25.33;38.99;100952.00;5078890;27;45707;-56
2021/05/17 17:00:16;;;;;;;;;0.00;0.00;;;;;25.33;39.03;100946.66;5081992;27;47196;-56
2021/05/17 17:02:42;;;;;;;;;0.00;0.00;;;;;25.31;39.43;100947.78;5081927;27;45910;-55
2021/05/17 17:05:09;;;;;;;;;0.00;0.00;;;;;25.28;39.27;100954.25;5077929;27;45593;-55
2021/05/17 17:07:35;;;;;;;;;0.00;0.00;;;;;25.22;39.37;100952.16;5082221;27;48248;-55
2021/05/17 17:10:01;;;;;;;;;0.00;0.00;;;;;25.18;38.72;100951.59;5078588;27;48295;-54
2021/05/17 17:12:28;;;;;;;;;0.00;0.00;;;;;25.20;38.99;100954.13;5076971;27;45653;-52
2021/05/17 17:14:53;;;;;;;;;0.00;0.00;;;;;25.21;38.78;100956.66;5084951;27;51730;-54
2021/05/17 17:17:19;;;;;;;;;0.00;0.00;;;;;25.27;39.14;100951.75;5082428;27;48553;-55
2021/05/17 17:19:45;;;;;;;;;0.00;0.00;;;;;25.34;39.21;100956.38;5082987;27;47048;-58
2021/05/17 17:22:11;;;;;;;;;0.00;0.00;;;;;25.39;38.91;100955.94;5077404;27;45637;-55
2021/05/17 17:24:43;;;;;;;;;0.00;0.00;;;;;25.41;39.46;100966.50;5077730;27;45918;-56
2021/05/17 17:27:12;;;;;;;;;0.00;0.00;;;;;25.38;38.56;100956.94;5075940;27;45714;-56
2021/05/17 17:29:39;;;;;;;;;0.00;0.00;;;;;25.34;38.77;100964.41;5089841;27;47269;-56
2021/05/17 17:32:09;;;;;;;;;0.00;0.00;;;;;25.33;38.38;100970.69;5089141;27;45462;-56
2021/05/17 17:34:37;;;;;;;;;0.00;0.00;;;;;25.33;38.52;100967.22;5097993;27;45805;-57
2021/05/17 17:37:10;;;;;;;;;0.00;0.00;;;;;25.33;38.80;100970.69;5071685;27;45605;-57
2021/05/17 17:39:43;;;;;;;;;0.00;0.00;;;;;25.33;38.66;100969.88;5074319;27;46283;-56
2021/05/17 17:42:10;;;;;;;;;0.25;0.00;;;;;25.30;39.01;100971.00;5075318;27;45841;-57
2021/05/17 17:44:36;;;;;;;;;0.00;0.00;;;;;25.27;38.78;100975.78;5075518;27;45604;-57
2021/05/17 17:47:03;;;;;;;;;0.00;0.00;;;;;25.20;38.93;100962.16;5073387;27;45743;-55
2021/05/17 17:49:29;;;;;;;;;0.00;0.00;;;;;25.20;38.82;100968.31;5071880;27;46406;-52
2021/05/17 17:51:57;;;;;;;;;0.00;0.00;;;;;25.27;38.69;100986.50;5070108;27;47457;-54
2021/05/17 17:54:25;;;;;;;;;0.00;0.00;;;;;25.29;38.89;100974.66;5072076;27;45846;-55
2021/05/17 17:56:54;;;;;;;;;0.75;0.00;;;;;25.28;38.25;100977.47;5072559;27;45849;-55
2021/05/17 17:59:22;;;;;;;;;0.00;0.00;;;;;25.26;38.58;100972.25;5071107;27;47192;-56
2021/05/17 18:01:48;;;;;;;;;0.00;0.00;;;;;25.27;38.63;100970.44;5072693;27;45640;-58
2021/05/17 18:04:15;;;;;;;;;0.00;0.00;;;;;25.26;38.44;100976.75;5080913;27;45724;-56
2021/05/17 18:06:42;;;;;;;;;0.00;0.00;;;;;25.24;38.64;100986.75;5083369;27;45471;-55
2021/05/17 18:09:13;;;;;;;;;0.00;0.00;;;;;25.21;38.79;100987.88;5090607;27;46418;-56
2021/05/17 18:11:39;;;;;;;;;0.00;0.00;;;;;25.16;38.80;100996.34;5081024;27;45789;-56
2021/05/17 18:14:07;;;;;;;;;0.00;0.00;;;;;25.13;38.47;100983.25;5075718;27;45909;-55
2021/05/17 18:16:34;;;;;;;;;0.00;0.00;;;;;25.12;38.77;100986.03;5077805;27;45705;-56
2021/05/17 18:18:59;;;;;;;;;0.00;0.00;;;;;25.08;38.54;100988.16;5077330;27;47032;-56
2021/05/17 18:21:26;;;;;;;;;0.00;0.00;;;;;25.02;38.45;100978.91;5089044;27;45525;-56
2021/05/17 18:23:53;;;;;;;;;0.00;0.00;;;;;25.08;38.59;100982.81;5094356;27;45410;-58
2021/05/17 18:26:20;;;;;;;;;0.00;0.00;;;;;25.04;38.44;100976.06;5096857;27;45761;-58
2021/05/17 18:28:46;;;;;;;;;0.00;0.00;;;;;25.05;38.74;100988.47;5096034;27;46161;-57
2021/05/17 18:31:16;;;;;;;;;0.00;0.00;;;;;25.03;38.38;100993.06;5094292;27;45793;-58
2021/05/17 18:33:45;;;;;;;;;0.00;0.00;;;;;25.03;38.39;100996.59;5094199;27;45655;-57
2021/05/17 18:36:14;;;;;;;;;0.00;0.00;;;;;25.03;38.39;100999.28;5095211;27;45775;-58
2021/05/17 18:38:47;;;;;;;;;0.25;0.00;;;;;25.04;38.18;101000.97;5095385;27;47102;-58
2021/05/17 18:41:15;;;;;;;;;0.00;0.00;;;;;25.00;38.46;100996.88;5095714;27;45400;-58
2021/05/17 18:46:07;;;;;;;;;0.00;0.00;;;;;25.07;38.78;101015.88;5094610;27;45846;-58
2021/05/17 18:48:33;;;;;;;;;0.00;0.00;;;;;25.05;38.29;101016.00;5095397;27;46177;-57
2021/05/17 18:51:00;;;;;;;;;0.00;0.00;;;;;25.01;38.19;101019.09;5094455;27;45970;-58
2021/05/17 18:53:28;;;;;;;;;0.00;0.00;;;;;24.83;38.81;101001.06;5095796;27;45709;-58
2021/05/17 18:55:55;;;;;;;;;0.00;0.00;;;;;24.93;38.15;101025.97;5095160;27;45474;-58
2021/05/17 18:58:21;;;;;;;;;0.00;0.00;;;;;24.83;38.09;101017.09;5095585;27;46985;-58
2021/05/17 19:00:48;;;;;;;;;0.00;0.00;;;;;24.86;38.63;101032.00;5095216;27;45374;-58
2021/05/17 19:03:13;;;;;;;;;0.00;0.00;;;;;24.82;38.70;101031.44;5095777;27;45426;-58
2021/05/17 19:05:39;;;;;;;;;0.00;0.00;;;;;24.75;38.55;101032.94;5095408;27;45560;-57
2021/05/17 19:08:05;;;;;;;;;1.00;0.00;;;;;24.74;38.45;101036.59;5073917;28;47266;-58
2021/05/17 19:10:33;;;;;;;;;0.00;0.00;;;;;24.70;38.64;101044.00;5075070;28;45765;-58
2021/05/17 19:12:58;;;;;;;;;0.00;0.00;;;;;24.66;38.44;101043.44;5074824;28;45616;-58
2021/05/17 19:15:28;;;;;;;;;0.00;0.00;;;;;24.62;38.87;101038.53;5075355;28;45570;-58
2021/05/17 19:17:56;;;;;;;;;0.00;0.00;;;;;24.58;38.72;101048.63;5073628;28;47313;-58
2021/05/17 19:20:22;;;;;;;;;0.50;0.00;;;;;24.54;38.74;101045.34;5074709;28;45397;-57
2021/05/17 19:22:47;;;;;;;;;0.00;0.00;;;;;24.51;38.76;101052.81;5074759;28;45508;-58
2021/05/17 19:25:13;;;;;;;;;0.00;0.00;;;;;24.48;38.32;101050.41;5074738;28;45445;-57
2021/05/17 19:27:41;;;;;;;;;0.00;0.00;;;;;24.44;38.72;101055.16;5074474;28;46105;-58
2021/05/17 19:30:09;;;;;;;;;0.00;0.00;;;;;24.34;38.63;101055.13;5081269;27;45639;-58
2021/05/17 19:32:35;;;;;;;;;0.00;0.00;;;;;24.34;38.61;101052.44;5094926;27;45566;-58
2021/05/17 19:35:03;;;;;;;;;0.00;0.00;;;;;24.30;38.76;101063.53;5095235;27;45572;-57
2021/05/17 19:37:31;;;;;;;;;0.00;0.00;;;;;24.25;38.93;101070.13;5095163;27;47115;-58
2021/05/17 19:39:59;;;;;;;;;0.00;0.00;;;;;24.22;38.83;101077.53;5093848;27;45711;-58
2021/05/17 19:42:24;;;;;;;;;0.00;0.00;;;;;24.17;38.68;101077.09;5095220;27;45740;-57
2021/05/17 19:44:50;;;;;;;;;0.00;0.00;;;;;24.13;38.72;101082.69;5095134;27;45991;-58
2021/05/17 19:47:16;;;;;;;;;0.00;0.00;;;;;24.07;38.57;101087.66;5094955;27;46262;-57
2021/05/17 19:49:42;;;;;;;;;0.00;0.00;;;;;24.05;38.39;101089.63;5094585;27;45912;-57
2021/05/17 19:52:10;;;;;;;;;0.00;0.00;;;;;24.01;38.81;101092.53;5093905;27;45585;-58
2021/05/17 19:54:38;;;;;;;;;1.00;0.00;;;;;23.98;38.93;101094.63;5095325;27;45417;-58
2021/05/17 19:57:06;;;;;;;;;0.00;0.00;;;;;23.95;38.42;101097.56;5094978;27;46342;-58
2021/05/17 19:59:33;;;;;;;;;0.00;0.00;;;;;23.91;39.04;101106.81;5094883;27;45541;-58
2021/05/17 20:01:58;;;;;;;;;0.00;0.00;;;;;23.86;39.03;101104.50;5094002;27;45489;-58
2021/05/17 20:04:24;;;;;;;;;0.00;0.00;;;;;23.82;39.02;101119.91;5095104;27;45503;-57
2021/05/17 20:06:53;;;;;;;;;0.00;0.00;;;;;23.80;39.05;101121.03;5084179;27;47085;-58
2021/05/17 20:09:20;;;;;;;;;0.00;0.00;;;;;23.75;38.63;101122.25;5074404;28;45457;-58
2021/05/17 20:11:46;;;;;;;;;0.00;0.00;;;;;23.72;38.61;101130.53;5074097;28;45545;-58
2021/05/17 20:14:13;;;;;;;;;0.00;0.00;;;;;23.69;38.68;101128.09;5073640;28;45802;-57
2021/05/17 20:16:39;;;;;;;;;0.00;0.00;;;;;23.66;38.74;101133.69;5074403;28;46364;-57
2021/05/17 20:19:06;;;;;;;;;0.00;0.00;;;;;23.59;39.08;101129.81;5073970;28;45538;-57
2021/05/17 20:21:31;;;;;;;;;0.00;0.00;;;;;23.62;39.14;101137.59;5074046;28;45691;-57
2021/05/17 20:23:57;;;;;;;;;0.00;0.00;;;;;23.59;39.28;101133.34;5073065;28;45624;-58
2021/05/17 20:26:23;;;;;;;;;0.00;0.00;;;;;23.58;39.00;101145.00;5073814;28;47145;-57
2021/05/17 20:28:50;;;;;;;;;0.00;0.00;;;;;23.58;39.02;101154.81;5073981;28;45548;-58
2021/05/17 20:31:20;;;;;;;;;0.00;0.00;;;;;23.56;38.77;101154.09;5073912;28;46244;-58
2021/05/17 20:34:00;;;;;;;;;0.00;0.00;;;;;23.54;39.31;101151.53;5073749;28;45474;-57
2021/05/17 20:36:26;;;;;;;;;0.00;0.00;;;;;23.52;38.74;101153.50;5073893;28;46092;-57
2021/05/17 20:38:55;;;;;;;;;0.00;0.00;;;;;23.51;38.75;101159.78;5073569;28;45511;-57
2021/05/17 20:41:22;;;;;;;;;0.00;0.00;;;;;23.48;39.16;101166.22;5085531;27;45373;-58
2021/05/17 20:43:49;;;;;;;;;0.00;0.00;;;;;23.47;39.28;101166.34;5094139;27;45668;-58
2021/05/17 20:46:17;;;;;;;;;0.00;0.00;;;;;23.41;39.24;101165.03;5093570;27;47074;-57
2021/05/17 20:48:43;;;;;;;;;0.00;0.00;;;;;23.42;39.17;101171.22;5094071;27;45554;-57
2021/05/17 20:51:10;;;;;;;;;0.50;0.00;;;;;23.41;39.07;101175.69;5093955;27;45757;-57
2021/05/17 20:53:36;;;;;;;;;0.00;0.00;;;;;23.37;39.31;101178.72;5094170;27;45683;-57
2021/05/17 20:56:03;;;;;;;;;0.00;0.00;;;;;23.35;38.93;101182.34;5092927;27;47523;-57
2021/05/17 20:58:28;;;;;;;;;0.00;0.00;;;;;23.32;38.89;101176.41;5093963;27;45438;-57
2021/05/17 21:00:54;;;;;;;;;0.00;0.00;;;;;23.30;39.01;101183.66;5093954;27;45611;-58
2021/05/17 21:03:20;;;;;;;;;0.00;0.00;;;;;23.23;39.00;101180.63;5093965;27;45772;-57
2021/05/17 21:05:46;;;;;;;;;0.00;0.00;;;;;23.23;38.97;101181.50;5093508;27;46033;-58
2021/05/17 21:08:14;;;;;;;;;0.75;0.00;;;;;23.21;39.31;101182.59;5093079;27;46181;-57
2021/05/17 21:10:40;;;;;;;;;0.00;0.00;;;;;23.17;39.08;101181.97;5093978;27;45597;-57
2021/05/17 21:13:05;;;;;;;;;1.00;0.00;;;;;23.16;39.30;101182.94;5093746;27;45740;-57
2021/05/17 21:15:31;;;;;;;;;0.00;0.00;;;;;23.15;39.04;101191.06;5093817;27;47065;-57
2021/05/17 21:17:59;;;;;;;;;0.00;0.00;;;;;23.12;38.91;101196.66;5092552;27;45749;-57
2021/05/17 21:20:25;;;;;;;;;0.00;0.00;;;;;23.11;39.35;101192.28;5093734;27;45391;-57
2021/05/17 21:22:51;;;;;;;;;0.00;0.00;;;;;23.06;39.01;101190.81;5093731;27;45470;-57
2021/05/17 21:25:18;;;;;;;;;0.00;0.00;;;;;23.05;39.51;101207.78;5093213;27;47308;-58
2021/05/17 21:27:46;;;;;;;;;0.00;0.00;;;;;22.93;39.18;101200.75;5093507;27;45418;-58
2021/05/17 21:30:15;;;;;;;;;0.00;0.00;;;;;23.00;39.02;101209.97;5092955;27;45414;-57
2021/05/17 21:32:43;;;;;;;;;0.00;0.00;;;;;22.98;39.59;101208.38;5093402;27;45551;-57
2021/05/17 21:35:10;;;;;;;;;0.00;0.00;;;;;22.94;39.47;101213.09;5093476;27;46308;-58
2021/05/17 21:37:36;;;;;;;;;0.00;0.00;;;;;22.94;39.43;101205.09;5093296;27;45715;-57
2021/05/17 21:40:03;;;;;;;;;0.00;0.00;;;;;22.91;39.49;101210.69;5091135;27;45672;-57
2021/05/17 21:42:28;;;;;;;;;0.00;0.00;;;;;22.90;39.08;101209.00;5072991;28;45555;-57
2021/05/17 21:44:54;;;;;;;;;0.00;0.00;;;;;22.88;39.06;101217.09;5072725;28;46978;-57
2021/05/17 21:47:20;;;;;;;;;0.25;0.00;;;;;22.82;39.44;101213.06;5072228;28;53234;-57
2021/05/17 21:49:46;;;;;;;;;0.00;0.00;;;;;22.85;39.57;101216.50;5072732;28;45808;-58
2021/05/17 21:52:12;;;;;;;;;0.00;0.00;;;;;22.83;39.53;101213.94;5072253;28;45921;-57
2021/05/17 21:54:39;;;;;;;;;0.00;0.00;;;;;22.82;39.54;101221.06;5074880;28;46201;-57
2021/05/17 21:57:05;;;;;;;;;0.00;0.00;;;;;22.80;39.30;101225.69;5076371;28;45674;-57
2021/05/17 21:59:30;;;;;;;;;0.00;0.00;;;;;22.78;39.33;101229.44;5076435;28;45422;-57
2021/05/17 22:01:56;;;;;;;;;0.00;0.00;;;;;22.79;39.56;101233.78;5075439;28;45486;-57
2021/05/17 22:04:22;;;;;;;;;0.00;0.00;;;;;22.77;39.27;101230.41;5076099;28;45617;-57
2021/05/17 22:06:48;;;;;;;;;0.00;0.00;;;;;22.76;39.48;101234.03;5076019;28;45345;-58
2021/05/17 22:12:01;;;;;;;;;0.00;0.00;;;;;22.72;39.51;101240.56;5095556;27;45462;-57
2021/05/17 22:14:28;;;;;;;;;0.00;0.00;;;;;22.69;39.08;101247.78;5096506;27;46259;-57
2021/05/17 22:16:54;;;;;;;;;0.00;0.00;;;;;22.65;39.44;101237.50;5096435;27;45723;-57
2021/05/17 22:19:20;;;;;;;;;1.00;0.00;;;;;22.65;39.23;101245.50;5096429;27;45548;-57
2021/05/17 22:21:46;;;;;;;;;0.00;0.00;;;;;22.59;39.49;101238.81;5096346;27;45498;-57
2021/05/17 22:24:14;;;;;;;;;0.00;0.00;;;;;22.61;39.49;101249.34;5095073;27;46308;-57
2021/05/17 22:26:40;;;;;;;;;0.00;0.00;;;;;22.58;39.14;101255.75;5095974;27;45567;-57
2021/05/17 22:29:06;;;;;;;;;0.00;0.00;;;;;22.56;39.27;101255.88;5096369;27;45471;-57
2021/05/17 22:31:32;;;;;;;;;0.00;0.00;;;;;22.52;39.36;101248.22;5096008;27;45405;-57
2021/05/17 22:34:01;;;;;;;;;0.00;0.00;;;;;22.52;39.01;101250.88;5095089;27;45979;-57
2021/05/17 22:36:28;;;;;;;;;0.00;0.00;;;;;22.48;38.88;101244.94;5096239;27;45458;-57
2021/05/17 22:38:54;;;;;;;;;0.00;0.00;;;;;22.42;39.39;101242.75;5096023;27;45721;-57
2021/05/17 22:41:19;;;;;;;;;0.00;0.00;;;;;22.44;39.09;101246.13;5083883;27;45537;-57
2021/05/17 22:43:45;;;;;;;;;0.00;0.00;;;;;22.36;39.46;101244.03;5075611;28;46146;-58
2021/05/17 22:46:12;;;;;;;;;0.00;0.00;;;;;22.39;39.02;101249.16;5074114;28;54548;-57
2021/05/17 22:48:52;;;;;;;;;0.00;0.00;;;;;22.38;38.87;101251.91;5075611;28;45514;-57
2021/05/17 22:51:19;;;;;;;;;0.00;0.00;;;;;22.36;39.40;101256.50;5075950;28;45446;-57
2021/05/17 22:53:44;;;;;;;;;0.00;0.00;;;;;22.33;39.34;101251.41;5075188;28;46293;-58
2021/05/17 22:56:10;;;;;;;;;0.00;0.00;;;;;22.30;39.29;101245.34;5074699;28;45497;-57
2021/05/17 22:58:35;;;;;;;;;0.00;0.00;;;;;22.27;39.22;101240.25;5075738;28;45465;-57
2021/05/17 23:01:01;;;;;;;;;0.00;0.00;;;;;22.27;39.18;101250.06;5075430;28;45597;-57
2021/05/17 23:03:26;;;;;;;;;0.00;0.00;;;;;22.24;39.09;101252.97;5075168;28;46218;-57
2021/05/17 23:05:52;;;;;;;;;0.00;0.00;;;;;22.23;39.31;101243.25;5073622;28;45581;-59
2021/05/17 23:08:17;;;;;;;;;0.00;0.00;;;;;22.21;39.51;101246.06;5075601;28;45417;-57
2021/05/17 23:10:43;;;;;;;;;0.00;0.00;;;;;22.19;39.06;101247.97;5075556;28;45527;-57
2021/05/17 23:13:09;;;;;;;;;0.00;0.00;;;;;22.13;39.19;101241.31;5074896;28;46348;-57
2021/05/17 23:15:34;;;;;;;;;0.00;0.00;;;;;22.15;39.04;101241.16;5075269;28;45438;-57
2021/05/17 23:18:02;;;;;;;;;0.00;0.00;;;;;22.15;39.21;101250.00;5074017;28;45676;-57
2021/05/17 23:23:28;;;;;;;;;0.00;0.00;;;;;22.11;39.30;101251.19;5074848;28;45602;-57
2021/05/17 23:28:40;;;;;;;;;0.00;0.00;;;;;22.09;39.16;101253.13;5075313;28;45406;-57
2021/05/17 23:31:06;;;;;;;;;0.75;0.00;;;;;22.08;38.98;101261.22;5092104;27;45918;-57
2021/05/17 23:33:33;;;;;;;;;0.00;0.00;;;;;22.05;39.04;101254.31;5095025;27;46164;-57
2021/05/17 23:36:01;;;;;;;;;0.00;0.00;;;;;22.04;39.59;101261.41;5094288;27;46083;-57
2021/05/17 23:38:27;;;;;;;;;0.00;0.00;;;;;22.03;39.29;101258.91;5095429;27;45524;-57
2021/05/17 23:40:54;;;;;;;;;0.00;0.00;;;;;22.01;39.25;101259.00;5068162;28;45498;-57
2021/05/17 23:43:21;;;;;;;;;0.00;0.00;;;;;22.00;39.01;101265.28;5074357;28;47072;-57
2021/05/17 23:45:46;;;;;;;;;0.00;0.00;;;;;21.98;39.20;101255.72;5074322;28;45855;-58
2021/05/17 23:48:12;;;;;;;;;1.00;0.00;;;;;21.96;38.98;101247.84;5073550;28;45665;-57
2021/05/17 23:50:39;;;;;;;;;0.00;0.00;;;;;21.95;38.76;101250.63;5074794;28;45571;-57
2021/05/17 23:53:06;;;;;;;;;0.00;0.00;;;;;21.93;39.00;101253.38;5074348;28;46322;-58
2021/05/17 23:55:33;;;;;;;;;0.00;0.00;;;;;21.92;39.03;101248.22;5074491;28;45671;-57
2021/05/17 23:57:59;;;;;;;;;0.00;0.00;;;;;21.90;39.31;101250.97;5073487;28;45969;-57
